Time;durP1;ratioP1;P1;durP2;ratioP2;P2;SDS_P1;SDS_P2;PMS_P1;PMS_P2;Temp;Humidity;BMP_temperature;BMP_pressure;BME280_temperature;BME280_humidity;BME280_pressure;Samples;Min_cycle;Max_cycle;Signal;HPM_P1;HPM_P2
2023/05/11 00:00:10;;;;;;;1.30;1.30;;;;;;;;;;5011660;28;20459;-75
2023/05/11 00:08:33;;;;;;;1.43;1.27;;;;;;;;;;4975260;28;20481;-76
2023/05/11 00:11:03;;;;;;;1.30;1.20;;;;;;;;;;5011502;28;20455;-76
2023/05/11 00:13:36;;;;;;;1.20;1.20;;;;;;;;;;5014806;28;20506;-76
2023/05/11 00:16:08;;;;;;;1.40;1.30;;;;;;;;;;5013619;28;20455;-76
2023/05/11 00:18:43;;;;;;;1.10;1.07;;;;;;;;;;5012138;28;20474;-75
2023/05/11 00:21:19;;;;;;;1.23;1.13;;;;;;;;;;5016382;28;20465;-78
2023/05/11 00:23:52;;;;;;;1.23;1.10;;;;;;;;;;5015690;28;20457;-74
2023/05/11 00:26:26;;;;;;;1.57;1.47;;;;;;;;;;5015833;28;20478;-75
2023/05/11 00:29:03;;;;;;;1.20;1.10;;;;;;;;;;5016274;28;20452;-78
2023/05/11 00:34:27;;;;;;;;;;;;;;;;;;;;;
2023/05/11 00:40:09;;;;;;;;;;;;;;;;;;;;;
2023/05/11 00:42:54;;;;;;;1.93;1.23;;;;;;;;;;5015472;28;20439;-76
2023/05/11 00:45:28;;;;;;;3.27;1.43;;;;;;;;;;5016655;28;20905;-74
2023/05/11 00:48:01;;;;;;;1.37;1.27;;;;;;;;;;5016145;28;20925;-76
2023/05/11 00:50:41;;;;;;;1.40;1.23;;;;;;;;;;5016908;28;20530;-74
2023/05/11 00:53:28;;;;;;;3.37;1.20;;;;;;;;;;5017246;28;20542;-74
2023/05/11 00:56:24;;;;;;;3.37;1.33;;;;;;;;;;5019319;28;20467;-77
2023/05/11 00:59:07;;;;;;;1.10;1.10;;;;;;;;;;5020110;28;20456;-77
2023/05/11 01:01:52;;;;;;;1.17;1.17;;;;;;;;;;5021256;28;20455;-76
2023/05/11 01:04:43;;;;;;;;;;;;;;;;;;;;;
2023/05/11 01:07:18;;;;;;;1.10;1.10;;;;;;;;;;5020169;28;20475;-75
2023/05/11 01:09:49;;;;;;;1.37;1.23;;;;;;;;;;5017154;28;20480;-77
2023/05/11 01:12:21;;;;;;;1.10;1.10;;;;;;;;;;5019480;28;20836;-76
2023/05/11 01:14:57;;;;;;;0.90;0.90;;;;;;;;;;5017238;28;20459;-78
2023/05/11 01:17:42;;;;;;;1.63;1.20;;;;;;;;;;5016792;28;20458;-77
2023/05/11 01:20:15;;;;;;;0.90;0.90;;;;;;;;;;5017352;28;20471;-75
2023/05/11 01:23:01;;;;;;;2.00;1.10;;;;;;;;;;5017788;28;20459;-76
2023/05/11 01:25:52;;;;;;;1.30;1.10;;;;;;;;;;5018759;28;20469;-75
2023/05/11 01:32:01;;;;;;;;;;;;;;;;;;;;;
2023/05/11 01:34:40;;;;;;;1.20;1.10;;;;;;;;;;5019171;28;20432;-77
2023/05/11 01:37:17;;;;;;;1.20;1.20;;;;;;;;;;5019283;28;20431;-75
2023/05/11 01:42:58;;;;;;;1.40;1.30;;;;;;;;;;5018143;28;20525;-76
2023/05/11 01:45:39;;;;;;;3.13;1.40;;;;;;;;;;5020722;28;20470;-76
2023/05/11 01:48:30;;;;;;;1.17;1.10;;;;;;;;;;5020493;28;20477;-75
2023/05/11 01:51:32;;;;;;;2.20;1.60;;;;;;;;;;5018869;28;20482;-75
2023/05/11 01:54:08;;;;;;;1.17;1.10;;;;;;;;;;5017428;28;20521;-75
2023/05/11 01:59:41;;;;;;;1.00;1.00;;;;;;;;;;4957453;28;20450;-76
2023/05/11 02:05:08;;;;;;;1.23;1.00;;;;;;;;;;5014376;28;20952;-75
2023/05/11 02:10:42;;;;;;;1.00;0.90;;;;;;;;;;5015013;28;20423;-75
2023/05/11 02:13:14;;;;;;;1.10;1.00;;;;;;;;;;5018293;28;20408;-76
2023/05/11 02:15:51;;;;;;;1.10;1.00;;;;;;;;;;5017864;28;21064;-77
2023/05/11 02:18:25;;;;;;;0.80;0.80;;;;;;;;;;5018072;28;20473;-78
2023/05/11 02:21:12;;;;;;;2.23;1.10;;;;;;;;;;5018009;28;20462;-77
2023/05/11 02:23:58;;;;;;;0.90;0.90;;;;;;;;;;5019225;28;20502;-77
2023/05/11 02:29:30;;;;;;;1.03;0.93;;;;;;;;;;5007697;28;20490;-76
2023/05/11 02:32:15;;;;;;;1.53;1.10;;;;;;;;;;5018700;28;20455;-75
2023/05/11 02:37:55;;;;;;;0.90;0.90;;;;;;;;;;5013393;28;20440;-76
2023/05/11 02:40:39;;;;;;;0.93;0.93;;;;;;;;;;5016671;28;21020;-75
2023/05/11 02:46:04;;;;;;;0.80;0.80;;;;;;;;;;5018532;28;20482;-75
2023/05/11 02:48:51;;;;;;;1.10;1.10;;;;;;;;;;5018319;28;20546;-75
2023/05/11 02:51:50;;;;;;;0.70;0.70;;;;;;;;;;5015826;28;20488;-75
2023/05/11 02:58:03;;;;;;;0.80;0.80;;;;;;;;;;4973333;28;20451;-74
2023/05/11 03:00:51;;;;;;;1.47;1.37;;;;;;;;;;4991320;28;20451;-75
2023/05/11 03:03:37;;;;;;;;;;;;;;;;;;;;;
2023/05/11 03:06:11;;;;;;;1.03;1.03;;;;;;;;;;4994498;28;20436;-76
2023/05/11 03:11:44;;;;;;;1.20;1.10;;;;;;;;;;5014788;28;20427;-77
2023/05/11 03:14:16;;;;;;;1.23;1.17;;;;;;;;;;5018128;28;20431;-74
2023/05/11 03:16:58;;;;;;;1.13;1.00;;;;;;;;;;5017952;28;20451;-76
2023/05/11 03:19:35;;;;;;;1.20;1.20;;;;;;;;;;5017756;28;20606;-76
2023/05/11 03:22:42;;;;;;;1.00;1.00;;;;;;;;;;5017390;28;20507;-74
2023/05/11 03:25:14;;;;;;;1.10;1.00;;;;;;;;;;5015672;28;20510;-75
2023/05/11 03:27:45;;;;;;;1.07;1.07;;;;;;;;;;5015644;28;20552;-76
2023/05/11 03:30:26;;;;;;;1.27;1.00;;;;;;;;;;5014428;28;20475;-74
2023/05/11 03:33:07;;;;;;;1.23;1.10;;;;;;;;;;5011871;28;20914;-74
2023/05/11 03:35:37;;;;;;;1.10;1.10;;;;;;;;;;5015606;28;20443;-75
2023/05/11 03:38:29;;;;;;;1.43;1.33;;;;;;;;;;5017091;28;20451;-75
2023/05/11 03:41:05;;;;;;;1.40;1.30;;;;;;;;;;5015822;28;20457;-74
2023/05/11 03:43:43;;;;;;;1.53;1.43;;;;;;;;;;5015679;28;20478;-74
2023/05/11 03:46:17;;;;;;;1.47;1.47;;;;;;;;;;4996319;28;20463;-74
2023/05/11 03:49:03;;;;;;;1.40;1.30;;;;;;;;;;4997456;28;20487;-76
2023/05/11 03:51:39;;;;;;;2.43;1.30;;;;;;;;;;5001231;28;20452;-76
2023/05/11 03:54:12;;;;;;;2.00;1.23;;;;;;;;;;5001827;28;20454;-76
2023/05/11 03:56:44;;;;;;;1.27;1.27;;;;;;;;;;5006475;28;20451;-74
2023/05/11 03:59:21;;;;;;;4.07;1.80;;;;;;;;;;5006610;28;20472;-74
2023/05/11 04:02:04;;;;;;;1.60;1.40;;;;;;;;;;5007693;28;20456;-74
2023/05/11 04:04:48;;;;;;;1.30;1.30;;;;;;;;;;5007063;28;20483;-76
2023/05/11 04:07:21;;;;;;;1.50;1.50;;;;;;;;;;5007023;28;20451;-75
2023/05/11 04:09:56;;;;;;;1.43;1.33;;;;;;;;;;5006198;28;20490;-74
2023/05/11 04:12:39;;;;;;;1.40;1.30;;;;;;;;;;5006532;28;20463;-75
2023/05/11 04:15:11;;;;;;;1.37;1.33;;;;;;;;;;5005965;28;20471;-75
2023/05/11 04:20:30;;;;;;;1.57;1.50;;;;;;;;;;5026057;28;20447;-76
2023/05/11 04:23:18;;;;;;;1.40;1.30;;;;;;;;;;5027939;28;20521;-76
2023/05/11 04:25:46;;;;;;;1.23;1.13;;;;;;;;;;5024443;28;20463;-76
2023/05/11 04:28:19;;;;;;;2.40;2.30;;;;;;;;;;5022190;28;20487;-76
2023/05/11 04:30:51;;;;;;;1.43;1.33;;;;;;;;;;5021952;28;20474;-76
2023/05/11 04:33:24;;;;;;;1.90;1.80;;;;;;;;;;5022326;28;20448;-75
2023/05/11 04:36:00;;;;;;;3.60;1.63;;;;;;;;;;5025010;28;20452;-75
2023/05/11 04:38:38;;;;;;;1.77;1.50;;;;;;;;;;5027422;28;20550;-75
2023/05/11 04:41:16;;;;;;;1.93;1.83;;;;;;;;;;5028772;28;20446;-77
2023/05/11 04:43:51;;;;;;;1.47;1.37;;;;;;;;;;5028273;28;20471;-77
2023/05/11 04:46:37;;;;;;;1.53;1.53;;;;;;;;;;5027322;28;20471;-77
2023/05/11 04:51:53;;;;;;;1.80;1.70;;;;;;;;;;5023386;28;20873;-76
2023/05/11 04:54:29;;;;;;;3.67;1.70;;;;;;;;;;5022967;28;20451;-76
2023/05/11 04:57:10;;;;;;;6.10;2.00;;;;;;;;;;5019333;28;20498;-77
2023/05/11 04:59:47;;;;;;;2.40;1.60;;;;;;;;;;5018864;28;20510;-77
2023/05/11 05:05:08;;;;;;;1.80;1.70;;;;;;;;;;5021014;28;20527;-75
2023/05/11 05:07:53;;;;;;;2.53;2.33;;;;;;;;;;5021631;28;20977;-74
2023/05/11 05:10:27;;;;;;;1.50;1.40;;;;;;;;;;5021309;28;20450;-75
2023/05/11 05:12:57;;;;;;;2.10;2.00;;;;;;;;;;5022666;28;20435;-76
2023/05/11 05:15:41;;;;;;;3.30;2.20;;;;;;;;;;5023338;28;20483;-75
2023/05/11 05:18:09;;;;;;;2.70;2.07;;;;;;;;;;5022353;28;20482;-75
2023/05/11 05:20:42;;;;;;;2.03;1.93;;;;;;;;;;5019981;28;20471;-76
2023/05/11 05:23:12;;;;;;;2.83;1.80;;;;;;;;;;5019022;28;20428;-78
2023/05/11 05:25:44;;;;;;;2.47;2.37;;;;;;;;;;5017810;28;20470;-76
2023/05/11 05:28:13;;;;;;;2.23;2.07;;;;;;;;;;5019049;28;20447;-76
2023/05/11 05:30:42;;;;;;;3.07;2.40;;;;;;;;;;5017969;28;20452;-76
2023/05/11 05:33:16;;;;;;;2.80;2.60;;;;;;;;;;5016377;28;20478;-74
2023/05/11 05:35:52;;;;;;;1.90;1.70;;;;;;;;;;5020060;28;20427;-76
2023/05/11 05:38:34;;;;;;;1.83;1.73;;;;;;;;;;5024883;28;20475;-75
2023/05/11 05:41:08;;;;;;;3.63;2.30;;;;;;;;;;5029435;28;20443;-76
2023/05/11 05:43:48;;;;;;;2.77;2.00;;;;;;;;;;5029293;28;20451;-75
2023/05/11 05:49:14;;;;;;;3.70;1.97;;;;;;;;;;5018976;28;20483;-75
2023/05/11 05:51:43;;;;;;;2.20;2.10;;;;;;;;;;5015110;28;20451;-78
2023/05/11 05:54:27;;;;;;;2.97;2.27;;;;;;;;;;5021237;28;20444;-77
2023/05/11 05:57:03;;;;;;;2.00;1.90;;;;;;;;;;5029219;28;20486;-74
2023/05/11 05:59:50;;;;;;;1.80;1.70;;;;;;;;;;5027279;28;20481;-75
2023/05/11 06:02:25;;;;;;;2.00;1.90;;;;;;;;;;4996763;28;20431;-77
2023/05/11 06:07:56;;;;;;;1.87;1.77;;;;;;;;;;5018004;28;20486;-76
2023/05/11 06:10:26;;;;;;;2.57;2.20;;;;;;;;;;5020453;28;20483;-76
2023/05/11 06:12:55;;;;;;;3.13;1.60;;;;;;;;;;5019408;28;20801;-76
2023/05/11 06:15:26;;;;;;;2.30;2.17;;;;;;;;;;5019531;28;20921;-76
2023/05/11 06:21:01;;;;;;;2.37;1.83;;;;;;;;;;5008924;28;20448;-76
2023/05/11 06:23:39;;;;;;;2.77;1.73;;;;;;;;;;5016870;28;20945;-77
2023/05/11 06:26:24;;;;;;;3.40;2.07;;;;;;;;;;5012403;28;20474;-77
2023/05/11 06:32:01;;;;;;;2.20;2.00;;;;;;;;;;4996322;28;20638;-76
2023/05/11 06:34:32;;;;;;;2.90;2.53;;;;;;;;;;4996140;28;20452;-76
2023/05/11 06:37:04;;;;;;;2.23;2.13;;;;;;;;;;4994945;28;20535;-78
2023/05/11 06:39:42;;;;;;;1.77;1.67;;;;;;;;;;4996380;28;20579;-77
2023/05/11 06:42:23;;;;;;;3.27;1.90;;;;;;;;;;4995436;28;20789;-77
2023/05/11 06:45:01;;;;;;;2.43;1.80;;;;;;;;;;4994355;28;20448;-78
2023/05/11 06:47:30;;;;;;;3.33;1.80;;;;;;;;;;4994433;28;20440;-77
2023/05/11 06:50:02;;;;;;;5.03;1.90;;;;;;;;;;4993628;28;21017;-77
2023/05/11 06:55:15;;;;;;;7.33;2.20;;;;;;;;;;4988194;28;20447;-75
2023/05/11 06:57:45;;;;;;;3.33;2.10;;;;;;;;;;4995798;28;20460;-76
2023/05/11 07:00:14;;;;;;;2.23;2.13;;;;;;;;;;4994253;28;20532;-77
2023/05/11 07:02:44;;;;;;;1.87;1.77;;;;;;;;;;4993831;28;20445;-77
2023/05/11 07:05:24;;;;;;;1.70;1.63;;;;;;;;;;4996319;28;20448;-74
2023/05/11 07:08:03;;;;;;;2.30;2.10;;;;;;;;;;4998957;28;20456;-76
2023/05/11 07:10:41;;;;;;;2.20;1.80;;;;;;;;;;4994936;28;20530;-76
2023/05/11 07:13:21;;;;;;;4.20;3.00;;;;;;;;;;4994296;28;20810;-77
2023/05/11 07:15:51;;;;;;;2.50;2.30;;;;;;;;;;4994120;28;20456;-76
2023/05/11 07:18:40;;;;;;;3.33;2.40;;;;;;;;;;4996747;28;20475;-78
2023/05/11 07:21:20;;;;;;;6.03;2.10;;;;;;;;;;5013577;28;20432;-76
2023/05/11 07:23:57;;;;;;;3.90;2.00;;;;;;;;;;5014592;28;20506;-78
2023/05/11 07:26:33;;;;;;;2.33;2.10;;;;;;;;;;5013619;28;20827;-78
2023/05/11 07:29:34;;;;;;;4.10;2.10;;;;;;;;;;5010935;28;21056;-76
2023/05/11 07:32:08;;;;;;;1.97;1.87;;;;;;;;;;5013612;28;20546;-75
2023/05/11 07:37:41;;;;;;;3.10;1.77;;;;;;;;;;5012102;28;20463;-78
2023/05/11 07:40:12;;;;;;;1.90;1.70;;;;;;;;;;5013905;28;20470;-74
2023/05/11 07:42:51;;;;;;;1.57;1.47;;;;;;;;;;5014341;28;20456;-77
2023/05/11 07:45:27;;;;;;;1.60;1.50;;;;;;;;;;5014087;28;20455;-77
2023/05/11 07:48:07;;;;;;;1.80;1.73;;;;;;;;;;5014582;28;20920;-78
2023/05/11 07:50:39;;;;;;;1.70;1.57;;;;;;;;;;5013930;28;20482;-79
2023/05/11 07:53:18;;;;;;;2.23;2.13;;;;;;;;;;5013133;28;20855;-78
2023/05/11 07:55:49;;;;;;;2.20;1.70;;;;;;;;;;5013239;28;20529;-76
2023/05/11 07:58:36;;;;;;;2.50;2.30;;;;;;;;;;5013062;28;20907;-78
2023/05/11 08:01:22;;;;;;;2.33;2.13;;;;;;;;;;5013054;28;20455;-78
2023/05/11 08:03:52;;;;;;;2.23;2.13;;;;;;;;;;5013485;28;20530;-75
2023/05/11 08:06:21;;;;;;;2.03;1.93;;;;;;;;;;5012018;28;20489;-77
2023/05/11 08:08:55;;;;;;;2.37;2.17;;;;;;;;;;5011925;28;20489;-75
2023/05/11 08:11:39;;;;;;;2.37;2.17;;;;;;;;;;5013855;28;20887;-76
2023/05/11 08:14:11;;;;;;;3.60;1.97;;;;;;;;;;5015223;28;20479;-76
2023/05/11 08:16:55;;;;;;;2.37;2.17;;;;;;;;;;5014613;28;20522;-77
2023/05/11 08:19:32;;;;;;;2.50;2.30;;;;;;;;;;5013475;28;20459;-75
2023/05/11 08:22:03;;;;;;;2.90;2.07;;;;;;;;;;5014426;28;20451;-76
2023/05/11 08:24:40;;;;;;;2.00;1.90;;;;;;;;;;5015503;28;20475;-77
2023/05/11 08:27:14;;;;;;;3.10;2.60;;;;;;;;;;5016614;28;20435;-77
2023/05/11 08:29:57;;;;;;;2.83;2.63;;;;;;;;;;5016535;28;20614;-78
2023/05/11 08:32:30;;;;;;;2.50;2.07;;;;;;;;;;5017022;28;20477;-80
2023/05/11 08:35:00;;;;;;;2.60;2.30;;;;;;;;;;5019912;28;20483;-76
2023/05/11 08:37:38;;;;;;;2.60;2.40;;;;;;;;;;5022386;28;20833;-77
2023/05/11 08:40:11;;;;;;;2.30;2.10;;;;;;;;;;5021845;28;20506;-80
2023/05/11 08:42:49;;;;;;;3.33;3.00;;;;;;;;;;5024691;28;20451;-76
2023/05/11 08:45:19;;;;;;;3.27;2.97;;;;;;;;;;5025090;28;20455;-78
2023/05/11 08:47:53;;;;;;;4.07;3.20;;;;;;;;;;5024352;28;20479;-76
2023/05/11 08:50:28;;;;;;;3.60;3.30;;;;;;;;;;5024516;28;20573;-75
2023/05/11 08:52:59;;;;;;;3.50;3.20;;;;;;;;;;5023837;28;20474;-77
2023/05/11 08:55:42;;;;;;;;;;;;;;;;;;;;;
2023/05/11 08:58:13;;;;;;;4.60;3.70;;;;;;;;;;5025153;28;20447;-78
2023/05/11 09:00:46;;;;;;;3.50;3.30;;;;;;;;;;5025297;28;20447;-77
2023/05/11 09:03:34;;;;;;;3.50;3.20;;;;;;;;;;5026264;28;20447;-76
2023/05/11 09:06:06;;;;;;;3.20;3.00;;;;;;;;;;5025742;28;20452;-76
2023/05/11 09:08:40;;;;;;;3.17;2.97;;;;;;;;;;5026137;28;20482;-76
2023/05/11 09:11:18;;;;;;;3.70;3.23;;;;;;;;;;5027144;28;20586;-78
2023/05/11 09:14:10;;;;;;;3.30;3.10;;;;;;;;;;5024633;28;20538;-78
2023/05/11 09:16:42;;;;;;;2.57;2.47;;;;;;;;;;5026369;28;20454;-78
2023/05/11 09:19:14;;;;;;;4.30;2.70;;;;;;;;;;5024798;28;20471;-80
2023/05/11 09:22:11;;;;;;;3.00;2.80;;;;;;;;;;5023835;28;20447;-77
2023/05/11 09:24:53;;;;;;;3.50;3.20;;;;;;;;;;5024030;28;20423;-78
2023/05/11 09:27:20;;;;;;;2.80;2.60;;;;;;;;;;5023090;28;20458;-78
2023/05/11 09:29:48;;;;;;;2.83;2.63;;;;;;;;;;5021332;28;20526;-79
2023/05/11 09:32:17;;;;;;;2.80;2.50;;;;;;;;;;5022809;28;20512;-79
2023/05/11 09:35:25;;;;;;;2.77;2.67;;;;;;;;;;5024385;28;21015;-77
2023/05/11 09:40:51;;;;;;;3.87;3.57;;;;;;;;;;5017861;28;20468;-79
2023/05/11 09:43:20;;;;;;;3.40;3.20;;;;;;;;;;5024569;28;21040;-76
2023/05/11 09:45:50;;;;;;;3.90;3.53;;;;;;;;;;5028487;28;20454;-77
2023/05/11 09:54:30;;;;;;;3.70;3.10;;;;;;;;;;5001451;28;20462;-76
2023/05/11 09:59:56;;;;;;;3.37;3.10;;;;;;;;;;5020775;28;20482;-76
2023/05/11 10:02:30;;;;;;;2.70;2.60;;;;;;;;;;5023278;28;20483;-76
2023/05/11 10:05:09;;;;;;;2.90;2.77;;;;;;;;;;5022967;28;20466;-77
2023/05/11 10:10:48;;;;;;;3.77;3.50;;;;;;;;;;5014516;28;20526;-76
2023/05/11 10:13:29;;;;;;;3.00;2.80;;;;;;;;;;5024889;28;20444;-77
2023/05/11 10:15:59;;;;;;;3.40;3.20;;;;;;;;;;5024099;28;20458;-76
2023/05/11 10:18:34;;;;;;;3.10;2.57;;;;;;;;;;5023681;28;20466;-75
2023/05/11 10:21:12;;;;;;;2.97;2.67;;;;;;;;;;5024178;28;20454;-77
2023/05/11 10:23:44;;;;;;;1.97;1.87;;;;;;;;;;5025002;28;20440;-76
2023/05/11 10:26:13;;;;;;;1.93;1.83;;;;;;;;;;5025819;28;20462;-76
2023/05/11 10:28:58;;;;;;;3.53;3.10;;;;;;;;;;5028068;28;20527;-78
2023/05/11 10:34:30;;;;;;;2.90;2.80;;;;;;;;;;5029652;28;20510;-77
2023/05/11 10:37:05;;;;;;;3.37;3.10;;;;;;;;;;5025555;28;20454;-78
2023/05/11 10:39:40;;;;;;;3.00;2.80;;;;;;;;;;5022809;28;20470;-77
2023/05/11 10:42:35;;;;;;;4.23;2.70;;;;;;;;;;5021507;28;20451;-78
2023/05/11 10:45:20;;;;;;;3.03;2.83;;;;;;;;;;5024157;28;20459;-77
2023/05/11 10:48:06;;;;;;;2.50;2.40;;;;;;;;;;5026701;28;20466;-78
2023/05/11 10:50:41;;;;;;;2.17;2.00;;;;;;;;;;5026383;28;20475;-80
2023/05/11 10:53:38;;;;;;;2.87;2.53;;;;;;;;;;5024088;28;20427;-78
2023/05/11 10:56:25;;;;;;;3.60;2.83;;;;;;;;;;5020118;28;20417;-76
2023/05/11 10:59:22;;;;;;;2.97;2.77;;;;;;;;;;5017404;28;20558;-77
2023/05/11 11:02:01;;;;;;;2.97;2.77;;;;;;;;;;4981221;28;20452;-76
2023/05/11 11:04:47;;;;;;;3.03;2.83;;;;;;;;;;5011952;28;20481;-76
2023/05/11 11:07:25;;;;;;;2.93;2.73;;;;;;;;;;5001641;28;20455;-77
2023/05/11 11:12:59;;;;;;;2.90;2.70;;;;;;;;;;4992216;28;20435;-77
2023/05/11 11:18:51;;;;;;;;;;;;;;;;;;;;;
2023/05/11 11:24:41;;;;;;;3.60;2.80;;;;;;;;;;5003221;28;20458;-77
2023/05/11 11:27:42;;;;;;;3.40;3.20;;;;;;;;;;4932169;29;20547;-77
2023/05/11 11:30:21;;;;;;;3.07;2.87;;;;;;;;;;5013867;28;20570;-78
2023/05/11 11:32:56;;;;;;;3.60;3.00;;;;;;;;;;5013121;28;21029;-78
2023/05/11 11:35:54;;;;;;;3.07;2.77;;;;;;;;;;5013225;28;20541;-78
2023/05/11 11:41:38;;;;;;;2.50;2.30;;;;;;;;;;4993845;28;20454;-79
2023/05/11 11:44:21;;;;;;;2.83;2.70;;;;;;;;;;5013356;28;20496;-79
2023/05/11 11:47:09;;;;;;;3.13;2.70;;;;;;;;;;5014284;28;20431;-77
2023/05/11 11:49:44;;;;;;;2.50;2.30;;;;;;;;;;5013871;28;20542;-78
2023/05/11 11:52:42;;;;;;;2.70;2.50;;;;;;;;;;5013823;28;20526;-77
2023/05/11 11:55:35;;;;;;;2.40;2.20;;;;;;;;;;5013837;28;20436;-78
2023/05/11 11:58:10;;;;;;;2.67;2.40;;;;;;;;;;5014052;28;20462;-77
2023/05/11 12:00:43;;;;;;;2.20;2.10;;;;;;;;;;5014794;28;20538;-77
2023/05/11 12:03:24;;;;;;;2.37;2.27;;;;;;;;;;5014425;28;20467;-78
2023/05/11 12:05:56;;;;;;;2.37;2.17;;;;;;;;;;5013818;28;20459;-77
2023/05/11 12:08:37;;;;;;;2.57;2.47;;;;;;;;;;5014309;28;20475;-78
2023/05/11 12:11:27;;;;;;;2.97;2.20;;;;;;;;;;5014414;28;21036;-78
2023/05/11 12:13:57;;;;;;;4.03;2.40;;;;;;;;;;5014986;28;20531;-77
2023/05/11 12:16:33;;;;;;;2.50;2.30;;;;;;;;;;5017109;28;20547;-78
2023/05/11 12:19:23;;;;;;;2.60;1.97;;;;;;;;;;5017961;28;20546;-76
2023/05/11 12:21:53;;;;;;;1.90;1.80;;;;;;;;;;5018923;28;20447;-77
2023/05/11 12:24:22;;;;;;;1.60;1.60;;;;;;;;;;5017896;28;20447;-78
2023/05/11 12:29:53;;;;;;;2.10;2.00;;;;;;;;;;4956979;28;20455;-77
2023/05/11 12:32:32;;;;;;;2.70;2.50;;;;;;;;;;5016081;28;20485;-77
2023/05/11 12:35:07;;;;;;;2.30;2.20;;;;;;;;;;5015531;28;20554;-78
2023/05/11 12:37:54;;;;;;;2.33;2.17;;;;;;;;;;5015356;28;20454;-78
2023/05/11 12:40:29;;;;;;;2.70;2.60;;;;;;;;;;5015595;28;20462;-78
2023/05/11 12:43:10;;;;;;;2.83;2.63;;;;;;;;;;5016430;28;20486;-77
2023/05/11 12:51:46;;;;;;;2.07;1.97;;;;;;;;;;5010291;28;20897;-79
2023/05/11 12:54:42;;;;;;;;;;;;;;;;;;;;;
2023/05/11 12:57:25;;;;;;;1.60;1.50;;;;;;;;;;5008490;28;20451;-78
2023/05/11 13:00:14;;;;;;;1.20;1.20;;;;;;;;;;5015804;28;20498;-79
2023/05/11 13:02:57;;;;;;;1.20;1.10;;;;;;;;;;5005127;28;20451;-77
2023/05/11 13:05:38;;;;;;;1.97;1.77;;;;;;;;;;5017719;28;20539;-78
2023/05/11 13:08:25;;;;;;;;;;;;;;;;;;;;;
2023/05/11 13:11:24;;;;;;;2.43;2.30;;;;;;;;;;5017533;28;20470;-79
2023/05/11 13:19:54;;;;;;;;;;;;;;;;;;;;;
2023/05/11 13:25:38;;;;;;;1.40;1.40;;;;;;;;;;4960648;29;20555;-78
2023/05/11 13:28:10;;;;;;;1.60;1.50;;;;;;;;;;5019082;28;20455;-79
2023/05/11 13:30:40;;;;;;;5.13;1.90;;;;;;;;;;5019662;28;20479;-78
2023/05/11 13:33:23;;;;;;;1.80;1.70;;;;;;;;;;5021092;28;20539;-77
2023/05/11 13:35:57;;;;;;;1.60;1.50;;;;;;;;;;5019815;28;20466;-78
2023/05/11 13:38:29;;;;;;;1.40;1.40;;;;;;;;;;5020099;28;20997;-80
2023/05/11 13:40:58;;;;;;;1.87;1.03;;;;;;;;;;5021429;28;20439;-77
2023/05/11 13:43:27;;;;;;;0.93;0.93;;;;;;;;;;5024148;28;20436;-77
2023/05/11 13:45:56;;;;;;;2.03;1.50;;;;;;;;;;5021931;28;20522;-79
2023/05/11 13:48:29;;;;;;;1.23;1.13;;;;;;;;;;5021669;28;21008;-77
2023/05/11 13:51:00;;;;;;;2.93;1.10;;;;;;;;;;5020785;28;20854;-77
2023/05/11 13:53:28;;;;;;;1.50;1.50;;;;;;;;;;5020569;28;20456;-79
2023/05/11 13:56:00;;;;;;;1.20;1.20;;;;;;;;;;5019892;28;20470;-77
2023/05/11 13:58:29;;;;;;;1.50;1.40;;;;;;;;;;5021134;28;20558;-77
2023/05/11 14:01:00;;;;;;;1.97;1.80;;;;;;;;;;5020828;28;20470;-76
2023/05/11 14:03:36;;;;;;;1.43;1.43;;;;;;;;;;5021204;28;20483;-80
2023/05/11 14:06:08;;;;;;;1.80;1.70;;;;;;;;;;5021574;28;20463;-76
2023/05/11 14:08:50;;;;;;;2.60;1.60;;;;;;;;;;5022588;28;20467;-77
2023/05/11 14:11:19;;;;;;;2.20;1.53;;;;;;;;;;5022856;28;20479;-77
2023/05/11 14:16:42;;;;;;;5.10;3.10;;;;;;;;;;5021741;28;20452;-77
2023/05/11 14:19:14;;;;;;;1.90;1.80;;;;;;;;;;5022644;28;20498;-77
2023/05/11 14:21:49;;;;;;;1.60;1.50;;;;;;;;;;5024209;28;20448;-77
2023/05/11 14:24:21;;;;;;;1.50;1.40;;;;;;;;;;5022371;28;20471;-76
2023/05/11 14:26:50;;;;;;;1.70;1.60;;;;;;;;;;5024501;28;20479;-76
2023/05/11 14:29:22;;;;;;;1.30;1.30;;;;;;;;;;5024433;28;20463;-76
2023/05/11 14:31:51;;;;;;;1.37;1.27;;;;;;;;;;5023730;28;20511;-78
2023/05/11 14:34:26;;;;;;;1.80;1.00;;;;;;;;;;5022967;28;20451;-77
2023/05/11 14:37:03;;;;;;;1.10;1.10;;;;;;;;;;5025249;28;20447;-75
2023/05/11 14:39:36;;;;;;;1.40;1.27;;;;;;;;;;5023597;28;20478;-75
2023/05/11 14:42:05;;;;;;;1.27;1.13;;;;;;;;;;5023825;28;20451;-76
2023/05/11 14:44:38;;;;;;;1.00;1.00;;;;;;;;;;5023427;28;20459;-77
2023/05/11 14:47:09;;;;;;;1.60;1.50;;;;;;;;;;5023012;28;20520;-76
2023/05/11 14:49:37;;;;;;;2.13;1.10;;;;;;;;;;5023222;28;20479;-77
2023/05/11 14:52:11;;;;;;;1.23;1.13;;;;;;;;;;5023026;28;20478;-77
2023/05/11 14:54:41;;;;;;;0.90;0.90;;;;;;;;;;5023713;28;20515;-76
2023/05/11 14:57:11;;;;;;;1.30;1.03;;;;;;;;;;5024243;28;20455;-77
2023/05/11 14:59:40;;;;;;;1.33;1.27;;;;;;;;;;5024378;28;20482;-75
2023/05/11 15:02:09;;;;;;;1.63;1.00;;;;;;;;;;5029468;28;20451;-76
2023/05/11 15:04:36;;;;;;;0.93;0.93;;;;;;;;;;5024995;28;20450;-76
2023/05/11 15:07:04;;;;;;;1.10;1.00;;;;;;;;;;5025915;28;20513;-77
2023/05/11 15:09:34;;;;;;;1.00;1.00;;;;;;;;;;5021591;28;20483;-76
2023/05/11 15:12:03;;;;;;;1.57;1.30;;;;;;;;;;5019683;28;20486;-76
2023/05/11 15:14:34;;;;;;;1.97;1.37;;;;;;;;;;5023105;28;20531;-76
2023/05/11 15:17:02;;;;;;;1.50;1.50;;;;;;;;;;5019380;28;20562;-75
2023/05/11 15:19:32;;;;;;;1.47;1.40;;;;;;;;;;5019226;28;20491;-76
2023/05/11 15:22:00;;;;;;;1.60;1.10;;;;;;;;;;5019797;28;20435;-76
2023/05/11 15:24:28;;;;;;;1.33;1.30;;;;;;;;;;5020011;28;20470;-74
2023/05/11 15:27:05;;;;;;;1.30;1.20;;;;;;;;;;5020619;28;20448;-77
2023/05/11 15:29:34;;;;;;;2.07;1.27;;;;;;;;;;5021159;28;20483;-76
2023/05/11 15:32:04;;;;;;;2.37;1.23;;;;;;;;;;5022060;28;20507;-75
2023/05/11 15:34:38;;;;;;;1.10;1.10;;;;;;;;;;5020715;28;20514;-76
2023/05/11 15:37:11;;;;;;;1.63;1.53;;;;;;;;;;5019384;28;20451;-76
2023/05/11 15:39:42;;;;;;;4.57;1.40;;;;;;;;;;5018453;28;20487;-75
2023/05/11 15:42:25;;;;;;;1.23;1.20;;;;;;;;;;5019036;28;20454;-76
2023/05/11 15:44:54;;;;;;;1.60;1.50;;;;;;;;;;5018955;28;20474;-78
2023/05/11 15:47:28;;;;;;;1.40;1.40;;;;;;;;;;5017118;28;20443;-76
2023/05/11 15:50:08;;;;;;;1.83;1.73;;;;;;;;;;5016283;28;20480;-76
2023/05/11 15:52:59;;;;;;;1.50;1.40;;;;;;;;;;5019150;28;20478;-76
2023/05/11 15:55:54;;;;;;;1.70;1.60;;;;;;;;;;5015363;28;20462;-77
2023/05/11 15:58:34;;;;;;;1.77;1.67;;;;;;;;;;5020846;28;20494;-76
2023/05/11 16:01:05;;;;;;;1.70;1.60;;;;;;;;;;5020468;28;20574;-77
2023/05/11 16:03:38;;;;;;;1.50;1.40;;;;;;;;;;5024672;28;20842;-77
2023/05/11 16:06:09;;;;;;;1.77;1.40;;;;;;;;;;5026191;28;20440;-78
2023/05/11 16:08:52;;;;;;;1.60;1.50;;;;;;;;;;5025080;28;20514;-76
2023/05/11 16:11:25;;;;;;;1.40;1.40;;;;;;;;;;5025266;28;20450;-75
2023/05/11 16:14:03;;;;;;;1.50;1.40;;;;;;;;;;5023673;28;20439;-78
2023/05/11 16:16:39;;;;;;;1.70;1.60;;;;;;;;;;5025613;28;20455;-77
2023/05/11 16:19:17;;;;;;;1.70;1.60;;;;;;;;;;5024872;28;20490;-75
2023/05/11 16:21:51;;;;;;;2.10;1.70;;;;;;;;;;5023383;28;20545;-77
2023/05/11 16:24:38;;;;;;;1.63;1.53;;;;;;;;;;5018521;28;20443;-76
2023/05/11 16:27:07;;;;;;;2.50;1.70;;;;;;;;;;5018761;28;20463;-77
2023/05/11 16:29:43;;;;;;;1.30;1.30;;;;;;;;;;5017202;28;20525;-76
2023/05/11 16:32:19;;;;;;;1.90;1.80;;;;;;;;;;5019720;28;20470;-75
2023/05/11 16:34:53;;;;;;;2.07;1.87;;;;;;;;;;5023121;28;20447;-76
2023/05/11 16:45:58;;;;;;;1.80;1.80;;;;;;;;;;5021570;28;20909;-77
2023/05/11 16:48:48;;;;;;;1.77;1.77;;;;;;;;;;5025866;28;20475;-76
2023/05/11 16:51:28;;;;;;;2.10;2.00;;;;;;;;;;5024403;28;20465;-76
2023/05/11 16:56:42;;;;;;;1.80;1.70;;;;;;;;;;5020054;28;20879;-78
2023/05/11 16:59:15;;;;;;;2.70;2.40;;;;;;;;;;5021238;28;20475;-76
2023/05/11 17:01:46;;;;;;;2.03;1.93;;;;;;;;;;5022885;28;20996;-77
2023/05/11 17:04:17;;;;;;;2.50;2.30;;;;;;;;;;5021841;28;20440;-78
2023/05/11 17:06:45;;;;;;;1.87;1.80;;;;;;;;;;5019695;28;20598;-77
2023/05/11 17:09:12;;;;;;;1.80;1.70;;;;;;;;;;5019750;28;20477;-76
2023/05/11 17:11:43;;;;;;;1.80;1.70;;;;;;;;;;5020117;28;20471;-79
2023/05/11 17:14:13;;;;;;;2.17;2.00;;;;;;;;;;5019350;28;20526;-78
2023/05/11 17:16:41;;;;;;;1.80;1.70;;;;;;;;;;5020169;28;20456;-78
2023/05/11 17:19:11;;;;;;;2.37;2.27;;;;;;;;;;5022877;28;20460;-79
2023/05/11 17:21:45;;;;;;;2.10;2.00;;;;;;;;;;5024182;28;20454;-76
2023/05/11 17:24:13;;;;;;;2.93;2.00;;;;;;;;;;5022092;28;20929;-76
2023/05/11 17:26:44;;;;;;;2.43;2.30;;;;;;;;;;5021494;28;20463;-76
2023/05/11 17:29:12;;;;;;;2.57;2.47;;;;;;;;;;5023368;28;20498;-78
2023/05/11 17:31:41;;;;;;;2.30;2.20;;;;;;;;;;5022499;28;20459;-77
2023/05/11 17:34:11;;;;;;;2.20;2.10;;;;;;;;;;5021854;28;20455;-77
2023/05/11 17:36:40;;;;;;;2.40;2.23;;;;;;;;;;5022297;28;20443;-77
2023/05/11 17:42:07;;;;;;;2.40;2.30;;;;;;;;;;5015954;28;20420;-75
2023/05/11 17:44:40;;;;;;;3.33;2.57;;;;;;;;;;5026521;28;21005;-76
2023/05/11 17:47:10;;;;;;;2.07;1.97;;;;;;;;;;5026304;28;20481;-76
2023/05/11 17:49:41;;;;;;;2.87;2.47;;;;;;;;;;5024973;28;20467;-75
2023/05/11 17:52:09;;;;;;;2.43;2.03;;;;;;;;;;5024224;28;20506;-77
2023/05/11 17:54:38;;;;;;;2.47;2.33;;;;;;;;;;5021295;28;20443;-77
2023/05/11 17:57:06;;;;;;;2.60;2.40;;;;;;;;;;5021534;28;20455;-76
2023/05/11 17:59:46;;;;;;;2.67;2.43;;;;;;;;;;5021372;28;20495;-77
2023/05/11 18:02:17;;;;;;;2.30;2.20;;;;;;;;;;5023613;28;20428;-76